Scotland, Maryland
Current Conditions -  °F | °C
As of 9:53 AM on Saturday 20 Dec 2014 (Local Time) from KNUI Reporting Station
Clear Clear  
Wind Chill: 33°   Ceiling: Unl
Heat Index: 33°   Visibility: 10mi
Dew Point: 22°   Wind: 3mph
Humidity: 64%   Direction: 300°WNW
Pressure: 30.32"   Gusts: NA
Location:  38.09°N, 76.36°W
Report Text: KNUI 201453Z AUTO 30003KT 10SM CLR 01/M06 A3032 RMK AO2 SLP268 T00061056 50008
Loading
Personal Weather Stations






























Interactive Weather Map New forecast layout! Learn more

10-Day Weather Forecast

Advertisements
Track Severe Weather on mobile